Página principal
METAR-TAF:

METAR-TAF

Aeroportos :

Huslia, Alasca, Estados Unidos

latitude: 65-41-52N, longitude: 156-21-05W, altura: 65 m

Observação actual do tempo

O boletim foi feito há 53 minutos, às 10:56 UTC
Vento 3 kt de su-sudeste
Temperatura 12°C
Humidade 88%
Pressão 1012 hPa
Visibilidade: 16.1 km
Poucas nuvensa uma altura de 10000 ft

METAR: PAHL 191056Z AUTO 15003KT 10SM FEW100 12/10 A2988 RMK AO2 SLP119 T01170100 TSNO

Hora: 03:49 (11:49 UTC)


TAF: em falta

Observações e previsões do tempo de mais de 4000 aeroportos (mensagens METAR e TAF).

As estações disponíveis são os pontos amarelos e vermelhos sobre o mapa.

Mova o rato sobre o mapa para ver o nome da estação.

Depois clique no ponto para visualizar as observações e previsões meteorológicas.

Para alterar o mapa : clique nos botões verdes com uma cruz preta para aumentar o zoom; no botão verde com uma pitada de zoom; ou nas setas verdes para mapas adjacentes.


METAR-TAF: